Time;durP1;ratioP1;P1;durP2;ratioP2;P2;SDS_P1;SDS_P2;PMS_P1;PMS_P2;Temp;Humidity;BMP_temperature;BMP_pressure;BME280_temperature;BME280_humidity;BME280_pressure;Samples;Min_cycle;Max_cycle;Signal;HPM_P1;HPM_P2
2021/05/13 00:00:42;;;;;;;9.67;7.37;;;;;;;13.20;72.62;97810.13;128847;1101;62090;-93
2021/05/13 00:03:47;;;;;;;;;;;;;;;;;;;;;
2021/05/13 00:06:54;;;;;;;8.47;7.50;;;;;;;13.18;72.66;97806.75;128852;1101;61960;-93
2021/05/13 00:09:22;;;;;;;9.40;7.53;;;;;;;13.17;72.67;97802.39;128901;1101;62370;-93
2021/05/13 00:12:02;;;;;;;10.67;7.37;;;;;;;13.15;72.59;97801.69;128855;1101;61889;-94
2021/05/13 00:14:41;;;;;;;8.20;6.73;;;;;;;13.13;72.60;97803.69;128831;1101;62060;-90
2021/05/13 00:17:09;;;;;;;8.07;7.27;;;;;;;13.12;72.76;97798.49;128840;1101;61893;-86
2021/05/13 00:19:36;;;;;;;12.80;9.50;;;;;;;13.11;72.70;97796.81;128842;1101;61971;-92
2021/05/13 00:22:04;;;;;;;14.77;11.73;;;;;;;13.11;72.52;97789.61;128852;1101;61937;-92
2021/05/13 00:24:40;;;;;;;15.57;11.40;;;;;;;13.12;72.58;97788.61;128816;1101;63084;-91
2021/05/13 00:27:08;;;;;;;18.07;13.53;;;;;;;13.10;72.52;97779.86;128834;1101;61831;-90
2021/05/13 00:29:39;;;;;;;19.83;16.33;;;;;;;13.10;72.80;97782.55;128807;1101;62047;-91
2021/05/13 00:32:06;;;;;;;22.93;16.50;;;;;;;13.09;72.29;97780.03;128818;1101;61942;-90
2021/05/13 00:35:11;;;;;;;;;;;;;;;;;;;;;
2021/05/13 00:37:59;;;;;;;25.63;17.00;;;;;;;13.09;72.34;97785.39;128822;1101;63367;-92
2021/05/13 00:40:28;;;;;;;22.70;16.57;;;;;;;13.09;72.56;97782.70;128846;1101;62055;-90
2021/05/13 00:42:56;;;;;;;27.90;19.27;;;;;;;13.10;72.57;97781.70;128858;1101;61915;-89
2021/05/13 00:45:24;;;;;;;22.57;17.00;;;;;;;13.10;72.82;97777.19;128828;1101;62130;-89
2021/05/13 00:48:17;;;;;;;29.30;18.07;;;;;;;13.11;72.83;97770.84;128863;1101;61859;-91
2021/05/13 00:50:44;;;;;;;28.43;20.33;;;;;;;13.13;72.54;97765.33;128799;1101;61953;-90
2021/05/13 00:53:12;;;;;;;32.17;20.93;;;;;;;13.13;72.62;97760.80;128841;1101;62620;-90
2021/05/13 00:55:42;;;;;;;31.20;20.37;;;;;;;13.16;72.84;97755.11;128861;1101;61921;-91
2021/05/13 00:58:10;;;;;;;30.67;20.70;;;;;;;13.16;72.79;97749.75;128828;1101;61967;-92
2021/05/13 01:03:24;;;;;;;32.23;21.37;;;;;;;13.12;72.85;97764.48;128847;1101;63004;-89
2021/05/13 01:05:51;;;;;;;39.30;23.53;;;;;;;13.08;72.80;97760.42;128825;1101;62107;-89
2021/05/13 01:08:19;;;;;;;33.57;22.30;;;;;;;13.06;73.02;97775.00;128840;1101;61898;-95
2021/05/13 01:10:46;;;;;;;31.43;20.97;;;;;;;13.03;73.16;97780.66;128817;1101;62102;-89
2021/05/13 01:13:19;;;;;;;40.80;26.20;;;;;;;13.00;73.26;97784.50;128853;1101;61805;-91
2021/05/13 01:15:52;;;;;;;38.20;25.37;;;;;;;12.99;73.47;97786.34;128826;1101;62941;-91
2021/05/13 01:18:25;;;;;;;35.73;23.57;;;;;;;12.98;73.55;97792.70;128821;1101;62003;-89
2021/05/13 01:20:55;;;;;;;32.37;20.93;;;;;;;12.98;73.24;97797.23;128804;1101;62050;-89
2021/05/13 01:23:23;;;;;;;36.83;21.73;;;;;;;12.96;73.09;97786.64;128840;1101;61753;-90
2021/05/13 01:26:18;;;;;;;45.40;27.03;;;;;;;12.97;72.96;97795.52;128844;1101;62075;-89
2021/05/13 01:28:45;;;;;;;41.47;25.17;;;;;;;12.98;73.43;97802.59;128825;1100;63119;-89
2021/05/13 01:31:14;;;;;;;39.13;26.17;;;;;;;12.98;73.02;97802.59;128806;1101;62178;-91
2021/05/13 01:33:43;;;;;;;41.50;25.03;;;;;;;13.00;73.26;97805.94;128874;1101;61808;-91
2021/05/13 01:36:11;;;;;;;42.90;26.80;;;;;;;13.01;73.42;97804.10;128782;1101;61852;-91
2021/05/13 01:38:48;;;;;;;;;;;;;;;;;;;;;
2021/05/13 01:41:20;;;;;;;37.67;21.83;;;;;;;13.00;73.52;97800.58;128855;1101;62154;-91
2021/05/13 01:43:47;;;;;;;41.03;24.87;;;;;;;13.02;73.55;97800.42;128817;1101;62409;-90
2021/05/13 01:46:15;;;;;;;41.90;25.47;;;;;;;13.03;73.21;97794.05;128874;1101;61957;-91
2021/05/13 01:48:44;;;;;;;43.13;25.90;;;;;;;13.03;73.24;97796.73;128856;1101;61786;-91
2021/05/13 01:51:12;;;;;;;43.17;26.43;;;;;;;13.07;73.22;97792.76;128878;1101;62247;-90
2021/05/13 01:53:44;;;;;;;43.93;27.77;;;;;;;13.06;73.20;97791.92;128859;1101;61836;-89
2021/05/13 01:56:12;;;;;;;44.77;26.37;;;;;;;13.05;73.29;97781.36;128795;1101;61893;-90
2021/05/13 01:58:41;;;;;;;42.67;27.10;;;;;;;13.04;73.53;97787.69;128828;1101;61965;-84
2021/05/13 02:01:10;;;;;;;46.07;27.47;;;;;;;13.04;73.40;97783.20;128815;1101;62448;-90
2021/05/13 02:03:42;;;;;;;49.53;30.00;;;;;;;13.08;73.23;97783.71;128826;1101;61959;-88
2021/05/13 02:06:10;;;;;;;50.40;30.27;;;;;;;13.08;73.33;97781.88;128825;1101;61941;-91
2021/05/13 02:08:49;;;;;;;;;;;;;;;;;;;;;
2021/05/13 02:11:18;;;;;;;47.93;28.30;;;;;;;13.14;73.43;97778.56;128864;1101;62033;-84
2021/05/13 02:13:46;;;;;;;49.57;28.43;;;;;;;13.13;73.76;97765.33;128834;1101;61928;-88
2021/05/13 02:16:13;;;;;;;57.47;31.60;;;;;;;13.11;73.71;97764.66;128815;1101;62004;-90
2021/05/13 02:18:40;;;;;;;62.83;32.97;;;;;;;13.12;73.51;97759.13;128833;1101;62792;-88
2021/05/13 02:21:11;;;;;;;56.77;31.07;;;;;;;13.11;73.81;97746.73;128824;1101;62026;-86
2021/05/13 02:23:39;;;;;;;44.13;26.83;;;;;;;13.10;73.77;97750.38;128820;1101;61914;-90
2021/05/13 02:26:06;;;;;;;54.27;30.77;;;;;;;13.09;73.65;97739.83;128864;1101;61815;-87
2021/05/13 02:28:45;;;;;;;52.83;30.50;;;;;;;13.04;74.03;97729.60;128875;1101;61928;-90
2021/05/13 02:31:14;;;;;;;58.50;32.50;;;;;;;13.04;73.73;97720.69;128824;1101;63244;-87
2021/05/13 02:33:42;;;;;;;57.73;31.70;;;;;;;13.03;74.11;97711.81;128819;1101;61993;-86
2021/05/13 02:36:10;;;;;;;60.77;33.50;;;;;;;13.01;73.73;97697.74;128842;1101;61817;-87
2021/05/13 02:38:38;;;;;;;58.80;31.93;;;;;;;12.98;74.56;97696.23;128842;1101;61857;-84
2021/05/13 02:41:05;;;;;;;63.43;33.70;;;;;;;12.94;74.29;97681.47;128847;1101;61921;-91
2021/05/13 02:43:42;;;;;;;67.07;36.23;;;;;;;12.92;74.78;97671.92;128821;1101;62940;-91
2021/05/13 02:46:10;;;;;;;75.63;40.03;;;;;;;12.89;75.51;97672.22;128824;1101;61815;-87
2021/05/13 02:48:37;;;;;;;63.07;34.87;;;;;;;12.86;74.33;97667.19;128840;1101;61922;-90
2021/05/13 02:51:05;;;;;;;71.87;36.53;;;;;;;12.86;74.53;97661.83;128829;1101;61846;-89
2021/05/13 02:53:32;;;;;;;77.17;37.40;;;;;;;12.85;74.57;97658.31;128875;1101;61830;-87
2021/05/13 02:56:00;;;;;;;72.67;37.00;;;;;;;12.84;74.42;97658.45;128856;1101;63245;-89
2021/05/13 02:58:27;;;;;;;74.43;36.10;;;;;;;12.83;74.44;97659.45;128830;1101;62024;-86
2021/05/13 03:01:41;;;;;;;83.33;39.33;;;;;;;12.80;74.89;97652.59;128830;1101;62036;-89
2021/05/13 03:03:42;;;;;;;73.37;37.03;;;;;;;12.80;75.31;97657.11;128828;1101;61866;-86
2021/05/13 03:06:10;;;;;;;83.57;38.40;;;;;;;12.79;74.77;97660.76;128858;1101;61918;-85
2021/05/13 03:08:46;;;;;;;83.20;39.90;;;;;;;12.78;74.64;97659.92;128846;1101;61978;-88
2021/05/13 03:11:14;;;;;;;81.67;40.17;;;;;;;12.77;75.22;97660.09;128802;1101;62134;-87
2021/05/13 03:13:41;;;;;;;87.77;41.63;;;;;;;12.78;74.87;97673.31;128867;1101;61822;-90
2021/05/13 03:16:31;;;;;;;84.27;39.90;;;;;;;12.87;74.69;97684.94;128827;1101;61901;-89
2021/05/13 03:18:59;;;;;;;84.55;41.55;;;;;;;12.93;74.77;97684.31;128847;1101;61933;-84
2021/05/13 03:21:38;;;;;;;77.57;38.77;;;;;;;12.94;74.84;97696.70;128831;1101;62063;-89
2021/05/13 03:24:32;;;;;;;79.37;37.47;;;;;;;12.94;74.53;97691.34;128827;1101;62025;-91
2021/05/13 03:27:15;;;;;;;86.57;39.47;;;;;;;12.91;74.79;97695.16;128813;1101;61957;-88
2021/05/13 03:29:43;;;;;;;79.40;38.97;;;;;;;12.89;74.56;97701.69;128867;1101;61833;-91
2021/05/13 03:32:26;;;;;;;80.17;40.23;;;;;;;12.94;74.92;97723.50;128908;1101;61991;-91
2021/05/13 03:34:54;;;;;;;86.27;40.70;;;;;;;13.04;75.22;97713.52;128880;1101;62786;-90
2021/05/13 03:37:33;;;;;;;76.50;38.03;;;;;;;13.11;74.90;97725.28;128861;1101;62055;-91
2021/05/13 03:40:25;;;;;;;84.40;40.57;;;;;;;13.09;74.86;97719.22;128858;1101;61938;-92
2021/05/13 03:42:52;;;;;;;84.70;39.30;;;;;;;13.13;74.96;97722.44;128909;1101;62109;-91
2021/05/13 03:45:21;;;;;;;85.90;39.50;;;;;;;13.11;74.66;97725.28;128941;1101;62733;-93
2021/05/13 03:47:52;;;;;;;77.53;39.30;;;;;;;13.13;75.02;97719.76;128942;1101;62565;-92
2021/05/13 03:50:20;;;;;;;83.80;40.67;;;;;;;13.11;74.82;97713.73;128934;1101;61844;-93
2021/05/13 03:52:49;;;;;;;76.83;39.30;;;;;;;13.14;75.07;97719.59;128892;1101;61889;-93
2021/05/13 03:55:20;;;;;;;82.67;40.57;;;;;;;13.14;74.66;97716.08;128862;1101;61925;-92
2021/05/13 03:57:54;;;;;;;88.27;41.07;;;;;;;13.17;74.95;97719.29;128925;1101;62596;-95
2021/05/13 04:03:46;;;;;;;87.03;39.93;;;;;;;13.12;75.19;97704.69;128521;1101;62127;-89
2021/05/13 04:06:14;;;;;;;75.50;37.13;;;;;;;13.15;74.80;97704.34;128888;1101;61895;-92
2021/05/13 04:08:51;;;;;;;82.63;39.03;;;;;;;13.18;75.05;97704.88;128881;1101;61903;-92
2021/05/13 04:11:19;;;;;;;80.40;37.70;;;;;;;13.15;74.99;97707.03;128894;1101;61830;-94
2021/05/13 04:13:51;;;;;;;87.13;40.20;;;;;;;13.15;74.96;97707.03;128879;1101;62969;-93
2021/05/13 04:16:37;;;;;;;77.57;36.23;;;;;;;13.13;74.92;97703.67;128584;1102;61990;-90
2021/05/13 04:19:05;;;;;;;;;;;;;;;13.04;74.67;97700.13;128923;1101;61856;-89
2021/05/13 04:21:44;;;;;;;86.40;38.40;;;;;;;13.03;75.17;97690.38;128861;1101;61967;-89
2021/05/13 04:24:13;;;;;;;79.33;35.63;;;;;;;13.02;74.82;97694.06;128869;1101;61799;-89
2021/05/13 04:26:41;;;;;;;83.87;36.70;;;;;;;13.01;75.91;97681.66;128795;1101;63099;-88
2021/05/13 04:29:17;;;;;;;74.60;35.37;;;;;;;13.01;75.07;97688.87;128793;1101;62125;-89
2021/05/13 04:31:45;;;;;;;80.73;35.77;;;;;;;12.95;76.05;97685.81;128779;1101;62015;-86
2021/05/13 04:34:16;;;;;;;88.60;37.37;;;;;;;12.92;75.65;97678.11;128799;1101;61863;-88
2021/05/13 04:36:43;;;;;;;76.70;35.70;;;;;;;12.91;75.70;97680.92;128844;1101;61971;-88
2021/05/13 04:39:10;;;;;;;78.57;35.47;;;;;;;12.91;75.47;97680.92;128808;1101;62967;-88
2021/05/13 04:41:40;;;;;;;83.87;38.27;;;;;;;12.89;75.32;97675.73;128814;1101;62053;-90
2021/05/13 04:44:10;;;;;;;77.97;35.07;;;;;;;12.92;75.80;97675.44;128841;1101;61916;-89
2021/05/13 04:46:40;;;;;;;75.30;36.57;;;;;;;12.92;75.37;97672.75;128812;1101;61968;-91
2021/05/13 04:51:36;;;;;;;60.93;28.57;;;;;;;12.95;75.61;97663.55;128823;1101;62919;-89
2021/05/13 04:54:04;;;;;;;61.87;29.90;;;;;;;12.97;75.56;97661.53;128847;1101;62065;-91
2021/05/13 04:56:32;;;;;;;69.53;32.40;;;;;;;12.99;75.56;97656.88;128843;1101;61998;-92
2021/05/13 04:58:59;;;;;;;72.13;32.10;;;;;;;12.99;75.78;97656.88;128826;1101;62050;-89
2021/05/13 05:01:32;;;;;;;69.63;30.37;;;;;;;12.98;75.58;97660.56;128842;1101;62040;-90
2021/05/13 05:04:03;;;;;;;62.13;31.60;;;;;;;12.96;75.52;97666.05;128858;1101;61902;-91
2021/05/13 05:06:32;;;;;;;60.53;27.30;;;;;;;12.96;75.76;97649.14;128854;1101;62073;-90
2021/05/13 05:09:02;;;;;;;71.20;31.90;;;;;;;12.98;75.60;97655.20;128895;1101;61786;-90
2021/05/13 05:11:29;;;;;;;63.77;29.97;;;;;;;13.02;75.53;97653.02;128895;1101;61869;-91
2021/05/13 05:14:00;;;;;;;58.13;27.13;;;;;;;13.05;76.73;97650.88;128897;1100;61848;-86
2021/05/13 05:16:41;;;;;;;55.47;28.00;;;;;;;13.06;75.51;97649.88;128855;1101;61934;-92
2021/05/13 05:19:09;;;;;;;61.97;29.53;;;;;;;13.15;75.74;97646.22;128845;1101;61881;-91
2021/05/13 05:21:36;;;;;;;65.53;29.27;;;;;;;13.19;75.54;97638.70;128857;1101;61958;-93
2021/05/13 05:24:25;;;;;;;60.13;28.93;;;;;;;13.24;75.63;97639.09;128883;1101;61928;-90
2021/05/13 05:26:52;;;;;;;60.87;29.77;;;;;;;13.21;75.72;97634.05;128845;1101;61940;-91
2021/05/13 05:29:32;;;;;;;48.90;22.90;;;;;;;13.19;76.00;97631.50;128826;1101;63544;-92
2021/05/13 05:32:00;;;;;;;52.63;26.47;;;;;;;13.19;75.66;97630.66;128852;1090;62080;-94
2021/05/13 05:34:47;;;;;;;51.13;25.47;;;;;;;13.21;75.73;97634.88;128910;1101;62048;-94
2021/05/13 05:37:22;;;;;;;57.93;28.83;;;;;;;13.25;75.83;97635.41;128879;1101;61888;-96
2021/05/13 05:39:49;;;;;;;54.90;27.10;;;;;;;13.27;75.63;97632.56;128921;1101;61819;-94
2021/05/13 05:42:17;;;;;;;52.27;27.87;;;;;;;13.25;75.62;97636.25;128866;1101;63008;-92
2021/05/13 05:44:47;;;;;;;52.17;24.87;;;;;;;13.23;75.89;97638.27;128824;1101;62044;-91
2021/05/13 05:47:17;;;;;;;44.00;23.27;;;;;;;13.20;76.01;97643.93;128845;1101;61970;-89
2021/05/13 05:49:47;;;;;;;55.63;28.43;;;;;;;13.20;76.19;97645.73;128851;1101;61976;-91
2021/05/13 05:52:16;;;;;;;51.63;25.90;;;;;;;13.19;76.07;97639.55;128850;1101;61759;-92
2021/05/13 05:54:46;;;;;;;50.17;25.47;;;;;;;13.17;76.19;97643.40;128857;1101;63098;-89
2021/05/13 05:57:21;;;;;;;47.03;25.27;;;;;;;13.19;75.84;97644.06;128826;1101;62003;-92
2021/05/13 05:59:52;;;;;;;47.33;24.90;;;;;;;13.21;76.13;97628.69;128847;1101;61895;-90
2021/05/13 06:02:19;;;;;;;49.30;24.73;;;;;;;13.25;76.11;97630.05;128853;1101;61845;-91
2021/05/13 06:04:47;;;;;;;47.90;25.83;;;;;;;13.28;75.84;97623.52;128862;1101;61882;-94
2021/05/13 06:07:14;;;;;;;45.57;22.70;;;;;;;13.39;75.96;97623.22;128900;1101;61883;-93
2021/05/13 06:09:41;;;;;;;48.07;22.20;;;;;;;13.55;76.24;97615.23;128915;1101;61964;-88
2021/05/13 06:12:12;;;;;;;38.77;21.10;;;;;;;13.67;75.64;97613.05;128911;1101;61900;-92
2021/05/13 06:14:40;;;;;;;40.47;21.53;;;;;;;13.72;75.57;97606.19;128829;1101;62696;-94
2021/05/13 06:17:18;;;;;;;41.90;22.60;;;;;;;13.82;75.77;97610.58;128906;1101;61858;-94
2021/05/13 06:19:46;;;;;;;30.30;18.00;;;;;;;13.92;75.80;97612.08;128906;1101;62165;-92
2021/05/13 06:22:13;;;;;;;31.70;17.73;;;;;;;13.89;75.48;97601.69;128842;1101;62039;-92
2021/05/13 06:24:43;;;;;;;30.93;18.80;;;;;;;13.86;75.39;97596.64;128901;1101;62014;-93
2021/05/13 06:27:13;;;;;;;35.13;18.20;;;;;;;13.88;75.46;97588.45;128567;1101;61915;-94
2021/05/13 06:29:45;;;;;;;27.63;16.07;;;;;;;13.96;75.54;97594.64;128897;1101;61885;-91
2021/05/13 06:32:13;;;;;;;31.33;17.77;;;;;;;14.03;75.33;97595.65;128922;1101;62965;-88
2021/05/13 06:34:44;;;;;;;29.97;18.40;;;;;;;14.17;75.66;97599.50;128793;1101;62068;-87
2021/05/13 06:37:28;;;;;;;25.80;16.63;;;;;;;14.31;75.28;97604.21;128866;1101;61996;-93
2021/05/13 06:39:59;;;;;;;25.87;16.30;;;;;;;14.30;75.20;97593.61;128818;1101;61898;-86
2021/05/13 06:42:28;;;;;;;19.83;14.80;;;;;;;14.27;75.24;97588.59;128837;1101;62088;-89
2021/05/13 06:45:09;;;;;;;27.60;16.63;;;;;;;14.29;75.13;97586.57;128796;1101;63168;-94
2021/05/13 06:48:35;;;;;;;30.00;18.50;;;;;;;14.36;75.22;97586.73;127107;1091;64313;-93
2021/05/13 06:51:20;;;;;;;23.10;13.97;;;;;;;14.48;75.47;97590.77;126907;1101;64300;-93
2021/05/13 06:54:08;;;;;;;27.57;16.70;;;;;;;14.46;75.34;97580.20;126377;1101;62802;-93
2021/05/13 06:57:16;;;;;;;26.17;15.90;;;;;;;14.41;75.10;97585.21;126018;1103;64316;-89
2021/05/13 07:00:24;;;;;;;26.70;16.50;;;;;;;14.37;75.72;97585.72;126342;1101;64230;-86
2021/05/13 07:02:58;;;;;;;20.83;15.10;;;;;;;14.32;75.11;97587.08;126737;1096;64316;-92
2021/05/13 07:06:30;;;;;;;26.20;16.13;;;;;;;14.28;75.31;97579.53;126165;1101;64356;-92
2021/05/13 07:09:24;;;;;;;25.88;16.20;;;;;;;14.19;75.44;97580.56;126390;1101;64230;-91
2021/05/13 07:12:38;;;;;;;24.13;14.20;;;;;;;14.20;75.46;97588.44;126650;1101;64265;-89
2021/05/13 07:15:52;;;;;;;19.07;13.80;;;;;;;14.21;75.32;97589.27;125820;1101;64349;-91
2021/05/13 07:18:45;;;;;;;20.27;13.87;;;;;;;14.28;75.38;97580.36;126546;1101;64258;-91
2021/05/13 07:21:49;;;;;;;23.97;14.30;;;;;;;14.49;75.64;97593.28;126131;1101;64754;-91
2021/05/13 07:24:41;;;;;;;22.77;15.43;;;;;;;14.58;75.38;97583.38;126667;1101;64195;-91
2021/05/13 07:27:43;;;;;;;20.67;14.87;;;;;;;14.67;75.58;97590.39;126614;1101;64769;-92
2021/05/13 07:30:26;;;;;;;27.70;15.67;;;;;;;14.72;75.38;97589.89;126332;1101;65083;-93
2021/05/13 07:32:55;;;;;;;24.75;15.35;;;;;;;14.92;75.29;97598.38;126932;1094;64181;-92
2021/05/13 07:35:47;;;;;;;;;;;;;;;;;;;;;
2021/05/13 07:38:20;;;;;;;25.53;15.57;;;;;;;15.03;75.16;97600.70;127650;1101;64287;-83
2021/05/13 07:43:52;;;;;;;20.23;14.70;;;;;;;15.03;75.49;97606.92;127504;1096;64188;-93
2021/05/13 07:46:26;;;;;;;18.55;12.90;;;;;;;14.95;75.46;97606.09;127624;1106;62054;-88
2021/05/13 07:49:19;;;;;;;;;;;;;;;;;;;;;
2021/05/13 07:55:34;;;;;;;19.43;13.37;;;;;;;14.79;75.51;97607.83;127496;1089;64230;-93
2021/05/13 07:58:14;;;;;;;;;;;;;;;;;;;;;
2021/05/13 08:01:01;;;;;;;20.53;14.63;;;;;;;14.62;75.27;97608.88;126724;1097;62623;-85
2021/05/13 08:04:11;;;;;;;57.80;33.90;;;;;;;14.50;75.42;97605.70;127111;1089;64361;-84
2021/05/13 08:06:42;;;;;;;46.60;30.93;;;;;;;14.63;75.92;97604.33;128258;1089;62101;-94
2021/05/13 08:09:17;;;;;;;80.27;47.10;;;;;;;14.65;75.69;97608.55;127816;1090;63682;-90
2021/05/13 08:11:45;;;;;;;46.18;28.68;;;;;;;14.71;75.88;97615.08;128281;1089;62491;-93
2021/05/13 08:14:13;;;;;;;26.83;15.07;;;;;;;14.73;75.77;97611.20;127567;1089;64166;-91
2021/05/13 08:16:42;;;;;;;21.47;13.80;;;;;;;14.79;75.86;97615.89;127789;1090;64268;-94
2021/05/13 08:19:11;;;;;;;20.57;14.23;;;;;;;14.79;75.74;97617.74;128043;1088;62293;-92
2021/05/13 08:21:57;;;;;;;;;;;;;;;;;;;;;
2021/05/13 08:24:40;;;;;;;21.23;17.73;;;;;;;14.62;75.58;97614.24;126907;1096;63504;-94
2021/05/13 08:27:08;;;;;;;24.70;18.17;;;;;;;14.58;75.84;97629.05;126844;1107;64237;-93
2021/05/13 08:29:35;;;;;;;54.47;36.40;;;;;;;14.56;76.05;97622.98;127191;1105;64178;-94
2021/05/13 08:32:05;;;;;;;18.43;14.47;;;;;;;14.57;75.53;97625.52;126576;1104;64436;-89
2021/05/13 08:34:36;;;;;;;15.63;12.67;;;;;;;14.54;75.38;97619.64;126366;1098;64259;-93
2021/05/13 08:37:07;;;;;;;17.83;14.83;;;;;;;14.49;75.51;97620.14;126260;1105;64518;-91
2021/05/13 08:39:41;;;;;;;16.83;12.30;;;;;;;14.45;75.65;97628.70;126203;1099;64342;-94
2021/05/13 08:45:50;;;;;;;27.23;16.50;;;;;;;14.44;75.70;97630.55;126799;1095;63980;-96
2021/05/13 08:48:36;;;;;;;24.70;15.90;;;;;;;14.49;75.83;97625.52;126731;1096;64427;-89
2021/05/13 08:51:18;;;;;;;23.80;17.17;;;;;;;14.54;76.05;97623.16;128141;1088;64522;-86
2021/05/13 08:53:56;;;;;;;24.13;15.33;;;;;;;14.58;75.47;97624.51;126615;1106;64175;-92
2021/05/13 08:56:25;;;;;;;23.40;14.28;;;;;;;14.69;75.59;97617.92;127510;1089;63346;-95
2021/05/13 08:59:13;;;;;;;23.50;14.50;;;;;;;14.72;75.72;97625.66;126454;1105;64294;-93
2021/05/13 09:04:58;;;;;;;22.17;15.40;;;;;;;14.69;75.84;97620.61;127395;1096;64013;-94
2021/05/13 09:07:34;;;;;;;;;;;;;;;14.60;75.51;97616.27;126821;1105;64320;-94
2021/05/13 09:10:34;;;;;;;;;;;;;;;;;;;;;
2021/05/13 09:13:19;;;;;;;20.67;15.60;;;;;;;14.46;75.56;97604.38;126820;1096;64355;-90
2021/05/13 09:15:47;;;;;;;13.93;11.43;;;;;;;14.48;75.30;97607.73;125515;1107;64339;-92
2021/05/13 09:18:38;;;;;;;13.87;11.30;;;;;;;14.57;75.50;97608.56;126143;1100;64320;-86
2021/05/13 09:21:27;;;;;;;17.50;14.43;;;;;;;14.65;75.55;97610.39;126099;1108;64361;-92
2021/05/13 09:24:35;;;;;;;17.90;13.53;;;;;;;14.64;75.75;97611.41;126543;1107;64230;-96
2021/05/13 09:27:32;;;;;;;13.37;9.73;;;;;;;14.69;75.62;97603.65;125820;1108;64573;-90
2021/05/13 09:30:40;;;;;;;7.93;5.77;;;;;;;14.61;75.46;97607.20;125809;1107;64415;-92
2021/05/13 09:33:26;;;;;;;7.13;6.30;;;;;;;14.61;75.22;97609.88;125454;1107;64314;-89
2021/05/13 09:35:57;;;;;;;10.07;7.27;;;;;;;14.70;75.61;97610.73;125983;1108;64329;-91
2021/05/13 09:38:37;;;;;;;8.53;6.57;;;;;;;14.79;75.29;97602.45;125766;1107;64189;-88
2021/05/13 09:41:43;;;;;;;10.00;8.33;;;;;;;14.83;75.06;97594.90;125972;1108;62998;-94
2021/05/13 09:44:55;;;;;;;9.70;8.27;;;;;;;14.90;75.23;97597.73;125978;1097;63131;-92
2021/05/13 09:47:27;;;;;;;10.50;7.10;;;;;;;14.99;74.92;97589.45;125882;1105;64364;-93
2021/05/13 09:51:01;;;;;;;10.20;7.63;;;;;;;15.10;75.13;97594.45;125878;1108;64326;-93
2021/05/13 09:53:32;;;;;;;8.30;7.20;;;;;;;15.52;74.73;97590.52;125548;1107;64352;-90
2021/05/13 09:56:30;;;;;;;11.13;9.43;;;;;;;15.91;74.79;97592.34;125798;1108;64281;-95
2021/05/13 09:59:33;;;;;;;7.03;5.90;;;;;;;16.10;74.18;97608.01;125589;1108;64249;-89
2021/05/13 10:02:10;;;;;;;8.67;6.50;;;;;;;15.97;74.48;97598.83;125321;1108;64393;-90
2021/05/13 10:04:49;;;;;;;9.43;6.77;;;;;;;15.82;75.00;97602.31;125597;1107;64857;-91
2021/05/13 10:07:32;;;;;;;9.50;7.13;;;;;;;15.58;74.54;97603.27;125509;1102;64331;-91
2021/05/13 10:10:00;;;;;;;9.80;6.17;;;;;;;15.31;74.74;97612.66;125405;1108;64250;-90
2021/05/13 10:13:01;;;;;;;8.20;6.00;;;;;;;15.17;75.22;97608.03;125443;1101;64363;-90
2021/05/13 10:15:37;;;;;;;8.40;6.23;;;;;;;15.13;74.97;97612.07;125279;1108;64275;-89
2021/05/13 10:21:04;;;;;;;10.50;7.60;;;;;;;14.84;75.08;97621.59;125895;1095;64278;-90
2021/05/13 10:23:36;;;;;;;9.77;6.77;;;;;;;14.80;75.37;97617.56;125669;1107;64261;-92
2021/05/13 10:26:07;;;;;;;8.20;6.35;;;;;;;14.83;75.51;97619.92;125813;1108;64330;-90
2021/05/13 10:28:41;;;;;;;15.27;9.23;;;;;;;14.78;75.66;97618.76;126105;1099;64296;-92
2021/05/13 10:31:08;;;;;;;20.17;8.40;;;;;;;14.78;75.91;97613.38;125587;1107;64329;-90
2021/05/13 10:33:51;;;;;;;10.00;5.87;;;;;;;14.81;75.78;97607.65;125934;1100;64422;-90
2021/05/13 10:36:19;;;;;;;8.67;6.20;;;;;;;14.98;75.74;97616.52;126067;1108;64387;-92
2021/05/13 10:39:18;;;;;;;8.50;5.13;;;;;;;15.13;75.93;97612.07;125605;1107;64294;-92
2021/05/13 10:42:09;;;;;;;7.87;5.97;;;;;;;15.17;75.71;97607.20;125607;1107;64312;-90
2021/05/13 10:44:51;;;;;;;;;;;;;;;;;;;;;
2021/05/13 10:47:41;;;;;;;7.40;5.77;;;;;;;15.09;76.11;97614.29;125994;1100;64291;-90
2021/05/13 10:51:02;;;;;;;12.17;8.00;;;;;;;15.12;75.73;97607.71;126003;1107;64326;-93
2021/05/13 10:53:50;;;;;;;5.97;5.27;;;;;;;14.91;75.21;97604.78;125845;1107;64860;-93
2021/05/13 10:56:33;;;;;;;8.77;6.50;;;;;;;14.81;75.61;97603.11;126143;1100;64377;-92
2021/05/13 10:59:18;;;;;;;9.73;6.80;;;;;;;14.78;75.60;97592.72;125511;1105;64386;-91
2021/05/13 11:01:57;;;;;;;14.38;7.65;;;;;;;14.87;75.75;97599.73;125936;1107;64268;-91
2021/05/13 11:04:40;;;;;;;10.43;7.27;;;;;;;15.01;75.63;97591.95;125527;1105;64349;-91
2021/05/13 11:07:29;;;;;;;7.23;5.70;;;;;;;15.04;75.51;97592.45;125754;1096;64402;-90
2021/05/13 11:10:00;;;;;;;10.43;7.00;;;;;;;15.11;75.83;97584.53;126221;1097;64397;-93
2021/05/13 11:13:00;;;;;;;9.60;6.67;;;;;;;15.35;75.54;97583.58;125671;1104;64272;-91
2021/05/13 11:15:53;;;;;;;14.83;9.80;;;;;;;15.65;75.21;97590.00;126037;1097;64284;-92
2021/05/13 11:18:46;;;;;;;10.77;6.03;;;;;;;15.98;75.36;97578.99;125879;1101;64459;-91
2021/05/13 11:21:22;;;;;;;15.47;9.87;;;;;;;16.04;75.24;97586.35;125728;1104;64207;-91
2021/05/13 11:23:55;;;;;;;8.53;5.90;;;;;;;15.82;75.01;97578.08;125133;1102;64425;-91
2021/05/13 11:26:23;;;;;;;7.17;4.87;;;;;;;15.51;75.00;97585.33;125136;1094;64332;-90
2021/05/13 11:28:56;;;;;;;8.70;4.90;;;;;;;15.23;75.49;97588.52;125428;1102;64208;-92
2021/05/13 11:31:29;;;;;;;11.13;5.80;;;;;;;14.99;75.92;97580.55;125592;1096;64243;-90
2021/05/13 11:34:50;;;;;;;;;;;;;;;;;;;;;
2021/05/13 11:38:09;;;;;;;9.33;7.30;;;;;;;14.75;76.01;97594.91;125397;1100;64479;-92
2021/05/13 11:41:17;;;;;;;9.33;7.10;;;;;;;14.59;76.02;97585.05;124532;1108;64397;-92
2021/05/13 11:44:24;;;;;;;11.87;6.40;;;;;;;14.55;76.00;97589.08;124783;1103;64340;-90
2021/05/13 11:47:02;;;;;;;10.50;7.03;;;;;;;14.51;75.73;97587.77;124637;1108;64281;-92
2021/05/13 11:50:10;;;;;;;10.60;6.80;;;;;;;14.37;76.02;97593.77;124607;1108;64393;-90
2021/05/13 11:53:45;;;;;;;9.80;6.70;;;;;;;14.33;75.96;97590.61;124696;1108;64307;-88
2021/05/13 11:56:32;;;;;;;10.83;7.20;;;;;;;14.32;75.93;97596.98;125052;1102;64785;-91
2021/05/13 11:59:15;;;;;;;14.43;8.53;;;;;;;14.50;75.87;97588.75;124879;1107;64495;-92
2021/05/13 12:01:46;;;;;;;12.83;7.57;;;;;;;14.56;75.48;97590.75;124861;1103;64319;-89
2021/05/13 12:04:42;;;;;;;8.90;7.00;;;;;;;14.57;75.42;97592.45;125036;1102;64563;-91
2021/05/13 12:07:36;;;;;;;8.27;6.53;;;;;;;14.73;75.52;97589.70;125177;1107;64606;-93
2021/05/13 12:10:53;;;;;;;7.77;6.40;;;;;;;14.94;75.26;97591.81;124957;1102;64419;-91
2021/05/13 12:13:30;;;;;;;11.60;6.97;;;;;;;14.79;75.33;97589.02;124967;1107;64313;-93
2021/05/13 12:16:42;;;;;;;10.47;8.07;;;;;;;14.61;75.51;97583.02;125368;1104;64394;-94
2021/05/13 12:19:21;;;;;;;8.97;5.90;;;;;;;14.39;75.56;97587.24;125496;1096;64326;-87
2021/05/13 12:22:05;;;;;;;8.60;6.10;;;;;;;14.20;75.71;97585.75;125010;1104;64358;-91
2021/05/13 12:24:55;;;;;;;8.10;5.88;;;;;;;14.24;75.98;97583.55;125761;1104;64703;-92
2021/05/13 12:27:35;;;;;;;5.60;4.70;;;;;;;14.41;75.72;97585.21;125241;1104;64300;-89
2021/05/13 12:30:45;;;;;;;6.80;4.40;;;;;;;14.34;75.70;97584.22;125203;1104;64202;-89
2021/05/13 12:33:39;;;;;;;6.57;4.50;;;;;;;14.21;75.90;97579.38;125092;1104;64415;-93
2021/05/13 12:37:00;;;;;;;;;;;;;;;;;;;;;
2021/05/13 12:40:18;;;;;;;4.53;3.60;;;;;;;14.15;76.25;97582.73;125141;1105;64307;-92
2021/05/13 12:42:46;;;;;;;4.40;3.47;;;;;;;14.13;76.10;97584.75;124990;1104;64328;-88
2021/05/13 12:46:03;;;;;;;;;;;;;;;;;;;;;
2021/05/13 12:48:53;;;;;;;15.73;9.50;;;;;;;13.97;76.33;97584.75;124485;1108;64419;-92